createdAt,value
2017-06-30T00:00:34.463Z,95.40
2017-06-30T00:03:02.554Z,95.70
2017-06-30T00:05:30.624Z,95.80
2017-06-30T00:07:58.707Z,96.10
2017-06-30T00:10:26.791Z,96.00
2017-06-30T00:12:54.877Z,96.50
2017-06-30T00:15:23.025Z,96.30
2017-06-30T00:17:51.117Z,96.30
2017-06-30T00:20:19.199Z,96.10
2017-06-30T00:22:47.299Z,96.80
2017-06-30T00:25:15.450Z,96.50
2017-06-30T00:27:43.630Z,96.60
2017-06-30T00:30:11.712Z,96.80
2017-06-30T00:32:39.983Z,96.60
2017-06-30T00:35:08.148Z,96.60
2017-06-30T00:37:36.219Z,96.70
2017-06-30T00:40:04.299Z,96.90
2017-06-30T00:42:32.379Z,96.90
2017-06-30T00:45:00.487Z,97.00
2017-06-30T00:47:28.561Z,96.90
2017-06-30T00:49:56.655Z,97.20
2017-06-30T00:52:24.727Z,97.80
2017-06-30T00:54:52.799Z,97.30
2017-06-30T00:57:20.894Z,97.40
2017-06-30T00:59:48.971Z,97.40
2017-06-30T01:02:17.049Z,98.20
2017-06-30T01:04:45.130Z,98.10
2017-06-30T01:07:13.216Z,97.90
2017-06-30T01:09:41.283Z,97.80
2017-06-30T01:12:09.383Z,97.70
2017-06-30T01:14:37.517Z,97.70
2017-06-30T01:17:05.595Z,97.50
2017-06-30T01:19:33.679Z,97.30
2017-06-30T01:22:01.769Z,97.10
2017-06-30T01:24:29.851Z,96.80
2017-06-30T01:26:57.941Z,96.70
2017-06-30T01:29:26.024Z,96.40
2017-06-30T01:31:54.116Z,96.80
2017-06-30T01:34:22.197Z,96.50
2017-06-30T01:36:50.279Z,96.60
2017-06-30T01:39:18.388Z,96.70
2017-06-30T01:41:46.472Z,97.20
2017-06-30T01:44:15.451Z,97.50
2017-06-30T01:46:43.536Z,97.40
2017-06-30T01:49:11.611Z,97.20
2017-06-30T01:51:39.702Z,97.20
2017-06-30T01:54:07.784Z,97.10
2017-06-30T01:56:35.867Z,96.90
2017-06-30T01:59:03.953Z,96.90
2017-06-30T02:01:32.032Z,96.40
2017-06-30T02:04:00.107Z,96.50
2017-06-30T02:06:28.204Z,96.10
2017-06-30T02:08:56.280Z,95.80
2017-06-30T02:11:24.356Z,95.70
2017-06-30T02:13:52.437Z,95.20
2017-06-30T02:16:20.512Z,95.10
2017-06-30T02:18:48.594Z,94.90
2017-06-30T02:21:16.671Z,94.80
2017-06-30T02:23:44.759Z,94.70
2017-06-30T02:26:12.845Z,94.50
2017-06-30T02:28:40.922Z,94.10
2017-06-30T02:31:09.012Z,94.00
2017-06-30T02:33:37.184Z,94.20
2017-06-30T02:36:05.275Z,94.10
2017-06-30T02:38:33.354Z,93.80
2017-06-30T02:41:01.437Z,93.70
2017-06-30T02:43:29.515Z,93.20
2017-06-30T02:45:57.604Z,93.30
2017-06-30T02:48:25.689Z,93.50
2017-06-30T02:50:53.825Z,93.40
2017-06-30T02:53:22.016Z,93.60
2017-06-30T02:55:50.117Z,93.50
2017-06-30T02:58:18.197Z,93.40
2017-06-30T03:00:46.274Z,93.20
2017-06-30T03:03:14.444Z,92.70
2017-06-30T03:05:42.510Z,93.00
2017-06-30T03:08:10.591Z,93.10
2017-06-30T03:10:38.720Z,93.00
2017-06-30T03:13:06.801Z,92.90
2017-06-30T03:15:34.891Z,93.00
2017-06-30T03:18:02.972Z,92.60
2017-06-30T03:20:31.053Z,92.40
2017-06-30T03:22:59.262Z,92.80
2017-06-30T03:25:27.335Z,92.50
2017-06-30T03:27:55.424Z,92.00
2017-06-30T03:30:23.512Z,92.00
2017-06-30T03:32:51.585Z,92.30
2017-06-30T03:35:19.667Z,92.40
2017-06-30T03:37:47.735Z,92.30
2017-06-30T03:40:15.822Z,92.30
2017-06-30T03:42:43.897Z,91.90
2017-06-30T03:45:11.974Z,92.00
2017-06-30T03:47:40.058Z,91.80
2017-06-30T03:50:08.144Z,92.40
2017-06-30T03:52:36.224Z,91.90
2017-06-30T03:55:04.300Z,91.70
2017-06-30T03:57:32.390Z,91.90
2017-06-30T04:00:00.463Z,91.80
2017-06-30T04:02:28.561Z,91.40
2017-06-30T04:04:56.635Z,91.50
2017-06-30T04:07:24.715Z,91.60
2017-06-30T04:09:52.994Z,91.90
2017-06-30T04:12:21.079Z,91.60
2017-06-30T04:14:49.347Z,91.80
2017-06-30T04:17:17.423Z,91.60
2017-06-30T04:19:45.567Z,91.70
2017-06-30T04:22:13.647Z,91.50
2017-06-30T04:24:41.731Z,91.60
2017-06-30T04:27:09.914Z,92.10
2017-06-30T04:29:38.167Z,92.10
2017-06-30T04:32:06.250Z,91.90
2017-06-30T04:34:34.514Z,92.10
2017-06-30T04:37:02.595Z,93.30
2017-06-30T04:39:30.866Z,93.20
2017-06-30T04:41:59.021Z,93.70
2017-06-30T04:44:27.222Z,94.50
2017-06-30T04:46:55.312Z,93.40
2017-06-30T04:49:23.392Z,94.40
2017-06-30T04:51:51.472Z,93.80
2017-06-30T04:54:19.579Z,94.40
2017-06-30T04:56:47.660Z,94.40
2017-06-30T04:59:15.826Z,94.50
2017-06-30T05:01:43.907Z,94.50
2017-06-30T05:04:11.983Z,94.80
2017-06-30T05:06:40.083Z,94.70
2017-06-30T05:09:08.162Z,94.20
2017-06-30T05:11:36.247Z,94.10
2017-06-30T05:14:04.395Z,93.80
2017-06-30T05:16:32.471Z,93.90
2017-06-30T05:19:00.552Z,93.50
2017-06-30T05:21:28.633Z,93.90
2017-06-30T05:23:56.712Z,93.20
2017-06-30T05:26:24.786Z,93.10
2017-06-30T05:28:52.878Z,92.50
2017-06-30T05:31:20.963Z,92.60
2017-06-30T05:33:49.032Z,91.20
2017-06-30T05:36:17.118Z,91.10
2017-06-30T05:38:45.199Z,91.20
2017-06-30T05:41:13.281Z,91.30
2017-06-30T05:43:41.451Z,90.50
2017-06-30T05:46:09.540Z,90.60
2017-06-30T05:48:37.622Z,90.80
2017-06-30T05:51:05.726Z,90.00
2017-06-30T05:53:33.787Z,89.90
2017-06-30T05:56:01.865Z,90.10
2017-06-30T05:58:29.952Z,90.50
2017-06-30T06:00:58.023Z,90.00
2017-06-30T06:03:26.099Z,90.70
2017-06-30T06:05:54.186Z,90.20
2017-06-30T06:08:22.403Z,88.00
2017-06-30T06:10:50.544Z,87.00
2017-06-30T06:13:18.606Z,85.90
2017-06-30T06:15:46.688Z,84.30
2017-06-30T06:18:14.763Z,85.10
2017-06-30T06:20:42.847Z,86.70
2017-06-30T06:23:10.924Z,84.50
2017-06-30T06:25:39.004Z,82.00
2017-06-30T06:28:07.091Z,83.10
2017-06-30T06:30:35.166Z,81.70
2017-06-30T06:33:03.240Z,80.10
2017-06-30T06:35:31.325Z,80.70
2017-06-30T06:37:59.396Z,82.10
2017-06-30T06:40:27.485Z,80.20
2017-06-30T06:42:55.555Z,81.30
2017-06-30T06:45:23.644Z,82.00
2017-06-30T06:47:51.714Z,80.60
2017-06-30T06:50:19.795Z,80.50
2017-06-30T06:52:47.874Z,79.50
2017-06-30T06:55:15.946Z,79.20
2017-06-30T06:57:44.023Z,78.00
2017-06-30T07:00:12.098Z,78.10
2017-06-30T07:02:40.178Z,78.80
2017-06-30T07:05:08.298Z,80.20
2017-06-30T07:07:36.386Z,77.80
2017-06-30T07:10:04.468Z,77.80
2017-06-30T07:12:32.539Z,78.40
2017-06-30T07:15:00.620Z,77.70
2017-06-30T07:17:28.703Z,77.20
2017-06-30T07:19:56.899Z,79.50
2017-06-30T07:22:24.967Z,79.00
2017-06-30T07:24:53.857Z,78.60
2017-06-30T07:27:21.931Z,77.30
2017-06-30T07:29:50.027Z,75.90
2017-06-30T07:32:18.103Z,75.10
2017-06-30T07:34:46.199Z,73.00
2017-06-30T07:37:14.285Z,71.30
2017-06-30T07:39:42.366Z,69.60
2017-06-30T07:42:10.455Z,65.60
2017-06-30T07:44:38.527Z,65.30
2017-06-30T07:47:07.046Z,63.70
2017-06-30T07:49:35.239Z,63.40
2017-06-30T07:52:03.322Z,66.70
2017-06-30T07:54:31.399Z,63.90
2017-06-30T07:56:59.488Z,65.90
2017-06-30T07:59:27.554Z,65.00
2017-06-30T08:01:55.626Z,63.90
2017-06-30T08:04:23.711Z,63.50
2017-06-30T08:06:51.788Z,64.40
2017-06-30T08:09:19.875Z,61.90
2017-06-30T08:11:47.954Z,60.40
2017-06-30T08:14:16.047Z,59.30
2017-06-30T08:16:44.128Z,58.00
2017-06-30T08:19:12.230Z,57.80
2017-06-30T08:21:40.304Z,57.70
2017-06-30T08:24:08.505Z,57.10
2017-06-30T08:26:36.584Z,56.30
2017-06-30T08:29:04.890Z,56.60
2017-06-30T08:31:32.979Z,55.40
2017-06-30T08:34:01.062Z,56.60
2017-06-30T08:36:29.153Z,55.30
2017-06-30T08:38:57.265Z,54.90
2017-06-30T08:41:25.351Z,56.30
2017-06-30T08:43:53.424Z,55.80
2017-06-30T08:46:21.515Z,55.40
2017-06-30T08:48:49.591Z,54.80
2017-06-30T08:51:17.671Z,53.40
2017-06-30T08:53:45.916Z,55.40
2017-06-30T08:56:14.024Z,54.10
2017-06-30T08:58:42.104Z,53.80
2017-06-30T09:01:10.324Z,52.60
2017-06-30T09:03:38.399Z,52.60
2017-06-30T09:06:06.487Z,53.40
2017-06-30T09:08:34.563Z,52.60
2017-06-30T09:11:02.646Z,53.00
2017-06-30T09:13:30.818Z,51.90
2017-06-30T09:15:58.976Z,52.50
2017-06-30T09:18:27.955Z,55.10
2017-06-30T09:20:56.035Z,55.10
2017-06-30T09:23:24.115Z,55.00
2017-06-30T09:25:52.200Z,54.60
2017-06-30T09:28:20.351Z,54.10
2017-06-30T09:30:49.304Z,54.40
2017-06-30T09:33:17.499Z,54.50
2017-06-30T09:35:45.587Z,52.20
2017-06-30T09:38:13.851Z,52.80
2017-06-30T09:40:41.987Z,53.50
2017-06-30T09:43:10.072Z,53.80
2017-06-30T09:45:38.222Z,52.00
2017-06-30T09:48:06.306Z,52.60
2017-06-30T09:50:34.391Z,53.40
2017-06-30T09:53:02.480Z,54.50
2017-06-30T09:55:30.560Z,52.20
2017-06-30T09:57:58.975Z,50.70
2017-06-30T10:00:27.043Z,51.60
2017-06-30T10:02:55.115Z,52.50
2017-06-30T10:05:23.199Z,53.60
2017-06-30T10:07:51.279Z,54.20
2017-06-30T10:10:19.456Z,51.80
2017-06-30T10:12:47.640Z,52.00
2017-06-30T10:15:15.835Z,50.40
2017-06-30T10:17:43.906Z,48.90
2017-06-30T10:20:12.007Z,47.80
2017-06-30T10:22:40.083Z,44.70
2017-06-30T10:25:08.178Z,45.80
2017-06-30T10:27:36.251Z,46.40
2017-06-30T10:30:04.326Z,46.90
2017-06-30T10:32:32.405Z,46.20
2017-06-30T10:35:00.481Z,46.40
2017-06-30T10:37:28.892Z,45.30
2017-06-30T10:39:56.975Z,45.10
2017-06-30T10:42:25.104Z,44.50
2017-06-30T10:44:53.175Z,42.20
2017-06-30T10:47:21.292Z,44.00
2017-06-30T10:49:49.364Z,46.30
2017-06-30T10:52:17.444Z,45.60
2017-06-30T10:54:45.550Z,46.20
2017-06-30T10:57:13.611Z,46.00
2017-06-30T10:59:41.706Z,46.50
2017-06-30T11:02:09.780Z,46.80
2017-06-30T11:04:37.897Z,46.90
2017-06-30T11:07:06.232Z,47.10
2017-06-30T11:09:34.293Z,44.40
2017-06-30T11:12:02.371Z,43.90
2017-06-30T11:14:30.467Z,44.50
2017-06-30T11:16:58.552Z,42.80
2017-06-30T11:19:26.626Z,41.10
2017-06-30T11:21:54.712Z,41.40
2017-06-30T11:24:22.791Z,44.40
2017-06-30T11:26:50.883Z,44.60
2017-06-30T11:29:18.973Z,44.60
2017-06-30T11:31:47.050Z,44.00
2017-06-30T11:34:15.124Z,42.10
2017-06-30T11:36:43.220Z,44.20
2017-06-30T11:39:11.291Z,45.80
2017-06-30T11:41:39.405Z,43.70
2017-06-30T11:44:07.481Z,44.60
2017-06-30T11:46:35.559Z,45.10
2017-06-30T11:49:03.642Z,46.20
2017-06-30T11:51:31.719Z,43.50
2017-06-30T11:53:59.808Z,43.80
2017-06-30T11:56:27.884Z,41.30
2017-06-30T11:58:55.971Z,40.90
2017-06-30T12:01:24.050Z,41.00
2017-06-30T12:03:52.133Z,40.80
2017-06-30T12:06:20.212Z,38.30
2017-06-30T12:08:48.313Z,37.70
2017-06-30T12:11:16.384Z,38.40
2017-06-30T12:13:44.459Z,39.60
2017-06-30T12:16:12.556Z,39.00
2017-06-30T12:18:40.631Z,40.00
2017-06-30T12:21:08.726Z,41.60
2017-06-30T12:23:36.795Z,39.80
2017-06-30T12:26:04.917Z,41.50
2017-06-30T12:28:32.967Z,42.00
2017-06-30T12:31:01.085Z,40.60
2017-06-30T12:33:29.216Z,43.10
2017-06-30T12:35:57.270Z,42.20
2017-06-30T12:38:25.351Z,42.40
2017-06-30T12:40:53.426Z,41.50
2017-06-30T12:43:21.520Z,41.60
2017-06-30T12:45:49.639Z,41.90
2017-06-30T12:48:17.717Z,42.00
2017-06-30T12:50:45.786Z,40.30
2017-06-30T12:53:13.867Z,37.40
2017-06-30T12:55:41.938Z,38.50
2017-06-30T12:58:10.031Z,38.60
2017-06-30T13:00:38.107Z,38.80
2017-06-30T13:03:06.211Z,41.80
2017-06-30T13:05:34.306Z,39.30
2017-06-30T13:08:02.385Z,40.30
2017-06-30T13:10:30.467Z,37.70
2017-06-30T13:12:58.543Z,38.00
2017-06-30T13:15:26.627Z,41.30
2017-06-30T13:17:54.758Z,41.40
2017-06-30T13:20:22.847Z,40.90
2017-06-30T13:22:50.965Z,40.50
2017-06-30T13:25:19.144Z,42.10
2017-06-30T13:27:47.257Z,43.00
2017-06-30T13:30:15.522Z,42.90
2017-06-30T13:32:43.607Z,42.90
2017-06-30T13:35:11.678Z,40.70
2017-06-30T13:37:39.763Z,41.00
2017-06-30T13:40:07.882Z,39.90
2017-06-30T13:42:35.964Z,39.30
2017-06-30T13:45:04.047Z,39.40
2017-06-30T13:47:32.148Z,41.00
2017-06-30T13:50:00.216Z,40.10
2017-06-30T13:52:28.306Z,41.00
2017-06-30T13:54:56.383Z,39.20
2017-06-30T13:57:24.478Z,39.00
2017-06-30T13:59:52.559Z,37.60
2017-06-30T14:02:20.635Z,38.70
2017-06-30T14:04:48.719Z,36.90
2017-06-30T14:07:16.791Z,35.70
2017-06-30T14:09:44.872Z,38.00
2017-06-30T14:12:12.966Z,38.50
2017-06-30T14:14:41.053Z,38.00
2017-06-30T14:17:09.139Z,37.70
2017-06-30T14:19:37.224Z,36.60
2017-06-30T14:22:05.311Z,37.90
2017-06-30T14:24:33.407Z,37.90
2017-06-30T14:27:01.495Z,39.60
2017-06-30T14:29:29.577Z,40.50
2017-06-30T14:31:57.667Z,38.10
2017-06-30T14:34:25.739Z,37.90
2017-06-30T14:36:53.812Z,38.30
2017-06-30T14:39:21.895Z,36.50
2017-06-30T14:41:49.969Z,37.90
2017-06-30T14:44:18.052Z,37.50
2017-06-30T14:46:46.130Z,37.10
2017-06-30T14:49:14.224Z,37.70
2017-06-30T14:51:42.311Z,36.50
2017-06-30T14:54:10.402Z,38.50
2017-06-30T14:56:38.778Z,38.10
2017-06-30T14:59:06.852Z,38.70
2017-06-30T15:01:34.944Z,38.60
2017-06-30T15:04:03.040Z,37.50
2017-06-30T15:06:31.136Z,36.40
2017-06-30T15:08:59.215Z,36.00
2017-06-30T15:11:27.321Z,37.30
2017-06-30T15:13:55.419Z,37.70
2017-06-30T15:16:23.746Z,38.00
2017-06-30T15:18:51.821Z,35.90
2017-06-30T15:21:19.903Z,36.10
2017-06-30T15:23:47.984Z,36.40
2017-06-30T15:26:16.086Z,37.70
2017-06-30T15:28:44.162Z,36.40
2017-06-30T15:31:12.247Z,36.80
2017-06-30T15:33:40.323Z,37.70
2017-06-30T15:36:08.402Z,37.80
2017-06-30T15:38:36.483Z,37.60
2017-06-30T15:41:04.563Z,36.60
2017-06-30T15:43:32.639Z,36.70
2017-06-30T15:46:00.715Z,37.30
2017-06-30T15:48:28.790Z,37.30
2017-06-30T15:50:56.878Z,37.00
2017-06-30T15:53:24.962Z,37.00
2017-06-30T15:55:53.064Z,37.20
2017-06-30T15:58:21.137Z,37.10
2017-06-30T16:00:49.207Z,38.10
2017-06-30T16:03:17.291Z,36.50
2017-06-30T16:05:45.395Z,38.50
2017-06-30T16:08:13.486Z,39.20
2017-06-30T16:10:41.575Z,37.10
2017-06-30T16:13:09.651Z,37.20
2017-06-30T16:15:37.722Z,37.20
2017-06-30T16:18:05.805Z,38.00
2017-06-30T16:20:33.895Z,37.60
2017-06-30T16:23:01.967Z,38.20
2017-06-30T16:25:30.075Z,38.00
2017-06-30T16:27:58.146Z,38.60
2017-06-30T16:30:26.225Z,38.60
2017-06-30T16:32:54.306Z,37.90
2017-06-30T16:35:22.376Z,36.80
2017-06-30T16:37:50.464Z,37.20
2017-06-30T16:40:18.535Z,37.40
2017-06-30T16:42:46.634Z,36.90
2017-06-30T16:45:14.724Z,36.80
2017-06-30T16:47:42.812Z,37.70
2017-06-30T16:50:10.891Z,39.30
2017-06-30T16:52:38.976Z,39.30
2017-06-30T16:55:07.059Z,38.80
2017-06-30T16:57:35.468Z,39.70
2017-06-30T17:00:03.533Z,39.90
2017-06-30T17:02:31.616Z,39.00
2017-06-30T17:04:59.691Z,39.30
2017-06-30T17:07:27.774Z,39.60
2017-06-30T17:09:55.864Z,38.20
2017-06-30T17:12:23.943Z,38.10
2017-06-30T17:14:52.016Z,37.80
2017-06-30T17:17:20.114Z,38.00
2017-06-30T17:19:48.196Z,39.50
2017-06-30T17:22:16.282Z,39.90
2017-06-30T17:24:44.368Z,40.20
2017-06-30T17:27:12.456Z,38.50
2017-06-30T17:29:40.531Z,38.50
2017-06-30T17:32:08.615Z,37.60
2017-06-30T17:34:38.083Z,37.70
2017-06-30T17:37:06.201Z,38.10
2017-06-30T17:39:34.272Z,38.20
2017-06-30T17:42:02.355Z,39.10
2017-06-30T17:44:30.439Z,40.10
2017-06-30T17:46:58.536Z,38.40
2017-06-30T17:49:26.625Z,39.20
2017-06-30T17:51:54.700Z,39.40
2017-06-30T17:54:22.783Z,40.80
2017-06-30T17:56:50.856Z,40.60
2017-06-30T17:59:18.932Z,40.80
2017-06-30T18:01:47.012Z,41.80
2017-06-30T18:04:15.111Z,40.50
2017-06-30T18:06:43.211Z,40.60
2017-06-30T18:09:11.290Z,41.00
2017-06-30T18:11:39.383Z,40.60
2017-06-30T18:14:07.466Z,41.50
2017-06-30T18:16:35.550Z,41.60
2017-06-30T18:19:03.623Z,40.60
2017-06-30T18:21:31.719Z,41.30
2017-06-30T18:23:59.798Z,42.20
2017-06-30T18:26:27.884Z,42.90
2017-06-30T18:28:55.965Z,43.10
2017-06-30T18:31:24.051Z,42.10
2017-06-30T18:33:52.134Z,42.70
2017-06-30T18:36:20.199Z,43.30
2017-06-30T18:38:48.317Z,44.30
2017-06-30T18:41:16.399Z,45.20
2017-06-30T18:43:44.479Z,45.30
2017-06-30T18:46:12.571Z,45.30
2017-06-30T18:48:40.671Z,45.30
2017-06-30T18:51:08.740Z,45.60
2017-06-30T18:53:36.836Z,46.40
2017-06-30T18:56:04.912Z,46.60
2017-06-30T18:58:33.009Z,48.30
2017-06-30T19:01:01.093Z,51.20
2017-06-30T19:03:29.976Z,52.40
2017-06-30T19:05:58.831Z,54.90
2017-06-30T19:08:26.931Z,54.90
2017-06-30T19:10:55.787Z,55.60
2017-06-30T19:13:23.961Z,55.90
2017-06-30T19:15:52.051Z,59.00
2017-06-30T19:18:20.140Z,61.10
2017-06-30T19:20:48.219Z,61.10
2017-06-30T19:23:16.354Z,62.50
2017-06-30T19:25:44.549Z,62.20
2017-06-30T19:28:12.800Z,63.00
2017-06-30T19:30:40.880Z,63.60
2017-06-30T19:33:08.961Z,63.60
2017-06-30T19:35:37.792Z,63.70
2017-06-30T19:38:06.065Z,65.50
2017-06-30T19:40:34.554Z,62.60
2017-06-30T19:43:02.893Z,66.80
2017-06-30T19:45:31.135Z,66.20
2017-06-30T19:47:59.466Z,65.10
2017-06-30T19:50:27.551Z,64.50
2017-06-30T19:52:55.811Z,63.30
2017-06-30T19:55:24.063Z,62.10
2017-06-30T19:57:52.262Z,63.70
2017-06-30T20:00:20.379Z,62.90
2017-06-30T20:02:48.854Z,65.30
2017-06-30T20:05:17.128Z,64.40
2017-06-30T20:07:45.209Z,61.50
2017-06-30T20:10:13.480Z,65.40
2017-06-30T20:12:41.742Z,64.10
2017-06-30T20:15:09.997Z,64.00
2017-06-30T20:17:38.186Z,63.30
2017-06-30T20:20:06.473Z,60.70
2017-06-30T20:22:34.892Z,60.50
2017-06-30T20:25:03.208Z,61.10
2017-06-30T20:27:31.450Z,62.80
2017-06-30T20:29:59.904Z,63.00
2017-06-30T20:32:28.008Z,63.40
2017-06-30T20:34:56.101Z,57.00
2017-06-30T20:37:24.199Z,56.30
2017-06-30T20:39:52.273Z,55.80
2017-06-30T20:42:20.374Z,54.90
2017-06-30T20:44:48.545Z,54.20
2017-06-30T20:47:16.720Z,54.50
2017-06-30T20:49:44.804Z,53.30
2017-06-30T20:52:12.896Z,54.00
2017-06-30T20:54:40.970Z,54.30
2017-06-30T20:57:09.305Z,54.30
2017-06-30T20:59:37.532Z,54.90
2017-06-30T21:02:05.759Z,55.40
2017-06-30T21:04:34.058Z,55.70
2017-06-30T21:07:02.274Z,56.50
2017-06-30T21:09:30.406Z,60.00
2017-06-30T21:11:58.565Z,65.80
2017-06-30T21:14:26.735Z,69.00
2017-06-30T21:16:54.946Z,73.20
2017-06-30T21:19:23.039Z,75.90
2017-06-30T21:21:51.138Z,74.70
2017-06-30T21:24:19.228Z,76.70
2017-06-30T21:26:47.324Z,76.20
2017-06-30T21:29:15.409Z,75.70
2017-06-30T21:31:43.498Z,79.00
2017-06-30T21:34:11.581Z,77.50
2017-06-30T21:36:39.661Z,74.00
2017-06-30T21:39:07.747Z,73.20
2017-06-30T21:41:35.832Z,81.10
2017-06-30T21:44:03.916Z,83.70
2017-06-30T21:46:32.003Z,86.80
2017-06-30T21:49:00.084Z,85.50
2017-06-30T21:51:28.167Z,86.60
2017-06-30T21:53:56.278Z,86.40
2017-06-30T21:56:24.360Z,86.40
2017-06-30T21:58:52.438Z,85.20
2017-06-30T22:01:20.532Z,86.60
2017-06-30T22:03:48.608Z,86.10
2017-06-30T22:06:16.694Z,85.90
2017-06-30T22:11:19.219Z,85.10
2017-06-30T22:13:47.303Z,87.50
2017-06-30T22:16:15.380Z,86.50
2017-06-30T22:18:43.464Z,85.70
2017-06-30T22:21:11.547Z,84.10
2017-06-30T22:23:39.622Z,85.20
2017-06-30T22:26:07.699Z,84.20
2017-06-30T22:28:35.789Z,85.10
2017-06-30T22:31:03.875Z,85.30
2017-06-30T22:33:31.966Z,84.20
2017-06-30T22:36:00.050Z,85.10
2017-06-30T22:38:28.151Z,86.10
2017-06-30T22:40:56.227Z,86.40
2017-06-30T22:43:24.498Z,86.80
2017-06-30T22:45:52.739Z,85.50
2017-06-30T22:48:20.839Z,85.30
2017-06-30T22:50:48.915Z,85.60
2017-06-30T22:53:17.004Z,86.30
2017-06-30T22:55:45.093Z,85.10
2017-06-30T22:58:13.171Z,85.90
2017-06-30T23:00:41.261Z,87.50
2017-06-30T23:03:09.338Z,88.80
2017-06-30T23:05:37.435Z,89.60
2017-06-30T23:08:05.512Z,89.30
2017-06-30T23:10:33.591Z,90.10
2017-06-30T23:13:01.676Z,90.20
2017-06-30T23:15:29.772Z,89.70
2017-06-30T23:17:57.865Z,89.10
2017-06-30T23:20:25.937Z,88.90
2017-06-30T23:22:54.030Z,87.10
2017-06-30T23:25:22.120Z,87.80
2017-06-30T23:27:50.333Z,84.80
2017-06-30T23:30:18.414Z,85.10
2017-06-30T23:32:46.499Z,85.20
2017-06-30T23:35:14.691Z,85.00
2017-06-30T23:37:42.795Z,84.70
2017-06-30T23:40:10.880Z,84.70
2017-06-30T23:42:38.956Z,84.30
2017-06-30T23:45:07.039Z,84.30
2017-06-30T23:47:35.132Z,83.20
2017-06-30T23:50:03.213Z,83.40
2017-06-30T23:52:31.309Z,84.60
2017-06-30T23:54:59.395Z,86.40
2017-06-30T23:57:27.485Z,86.30
2017-06-30T23:59:55.600Z,86.20
